Time;durP1;ratioP1;P1;durP2;ratioP2;P2;SDS_P1;SDS_P2;PMS_P1;PMS_P2;Temp;Humidity;BMP_temperature;BMP_pressure;BME280_temperature;BME280_humidity;BME280_pressure;Samples;Min_cycle;Max_cycle;Signal;HPM_P1;HPM_P2
2021/12/03 00:01:32;;;;;;;36.57;18.50;;;;;;;2.58;100.00;98705.09;5070421;28;20630;-74
2021/12/03 00:03:59;;;;;;;16.80;12.07;;;;;;;2.31;100.00;98680.03;5070318;28;20196;-74
2021/12/03 00:06:26;;;;;;;17.60;10.73;;;;;;;2.38;100.00;98727.19;5070529;28;20594;-72
2021/12/03 00:08:53;;;;;;;22.80;13.03;;;;;;;2.24;100.00;98698.63;5070688;28;20595;-74
2021/12/03 00:11:22;;;;;;;19.33;12.83;;;;;;;2.18;100.00;98698.69;5070199;28;20692;-70
2021/12/03 00:13:48;;;;;;;21.87;11.97;;;;;;;2.25;100.00;98705.38;5070466;28;20193;-74
2021/12/03 00:16:15;;;;;;;15.37;10.80;;;;;;;2.18;100.00;98689.41;5070365;28;20668;-71
2021/12/03 00:18:42;;;;;;;15.07;10.77;;;;;;;2.30;100.00;98701.94;5070348;28;20207;-73
2021/12/03 00:21:11;;;;;;;18.07;11.50;;;;;;;2.40;100.00;98702.72;5070415;28;20200;-72
2021/12/03 00:23:38;;;;;;;23.07;12.47;;;;;;;2.40;100.00;98690.91;5070140;28;20196;-73
2021/12/03 00:26:07;;;;;;;17.13;12.40;;;;;;;2.36;100.00;98728.91;5070332;28;20684;-72
2021/12/03 00:28:38;;;;;;;14.23;10.47;;;;;;;2.38;100.00;98719.59;5070258;28;20630;-74
2021/12/03 00:31:06;;;;;;;20.40;12.27;;;;;;;2.26;100.00;98712.13;5070273;28;20219;-72
2021/12/03 00:33:35;;;;;;;14.27;10.03;;;;;;;2.28;100.00;98730.63;5068785;28;20204;-72
2021/12/03 00:36:05;;;;;;;14.47;10.43;;;;;;;2.10;100.00;98719.81;5069758;28;20215;-72
2021/12/03 00:38:36;;;;;;;15.70;10.60;;;;;;;2.03;100.00;98732.53;5069532;28;20196;-72
2021/12/03 00:41:05;;;;;;;14.10;11.07;;;;;;;2.16;100.00;98730.75;5071866;28;20282;-73
2021/12/03 00:43:32;;;;;;;16.90;10.87;;;;;;;2.09;100.00;98729.94;5071447;28;20207;-72
2021/12/03 00:46:05;;;;;;;10.40;9.27;;;;;;;2.09;100.00;98709.72;5072065;28;20664;-73
2021/12/03 00:48:32;;;;;;;21.40;12.43;;;;;;;1.80;100.00;98707.41;5071791;28;20650;-72
2021/12/03 00:50:59;;;;;;;16.63;11.97;;;;;;;2.00;100.00;98700.50;5071074;28;20224;-73
2021/12/03 00:53:26;;;;;;;16.67;11.50;;;;;;;2.09;100.00;98713.09;5070401;28;20610;-72
2021/12/03 00:55:53;;;;;;;17.53;12.33;;;;;;;2.17;100.00;98719.75;5072794;28;20196;-72
2021/12/03 00:58:20;;;;;;;22.57;15.43;;;;;;;2.25;100.00;98703.69;5070296;28;20196;-74
2021/12/03 01:00:47;;;;;;;22.33;13.53;;;;;;;2.11;100.00;98688.63;5071508;28;20222;-72
2021/12/03 01:03:15;;;;;;;25.00;15.23;;;;;;;2.04;100.00;98709.75;5071761;28;20599;-73
2021/12/03 01:05:42;;;;;;;20.20;13.27;;;;;;;1.89;100.00;98692.16;5071487;28;20215;-72
2021/12/03 01:08:09;;;;;;;29.03;17.33;;;;;;;1.94;100.00;98720.75;5071816;28;20192;-72
2021/12/03 01:10:36;;;;;;;21.37;13.27;;;;;;;1.92;100.00;98704.78;5071839;28;20200;-74
2021/12/03 01:13:03;;;;;;;18.50;13.23;;;;;;;1.96;100.00;98677.78;5073096;28;20223;-74
2021/12/03 01:15:33;;;;;;;22.83;14.40;;;;;;;1.82;100.00;98640.00;5073212;28;20196;-73
2021/12/03 01:18:01;;;;;;;24.37;15.60;;;;;;;2.03;100.00;98669.31;5072432;28;20208;-72
2021/12/03 01:20:30;;;;;;;40.17;17.60;;;;;;;2.00;100.00;98655.00;5073109;28;20212;-74
2021/12/03 01:22:58;;;;;;;23.90;14.43;;;;;;;2.11;100.00;98683.56;5072968;28;20200;-72
2021/12/03 01:25:26;;;;;;;21.47;14.40;;;;;;;2.20;100.00;98671.72;5073117;28;20207;-73
2021/12/03 01:27:53;;;;;;;20.97;14.63;;;;;;;2.27;100.00;98683.44;5072794;28;20192;-72
2021/12/03 01:30:23;;;;;;;23.50;14.30;;;;;;;2.33;100.00;98696.88;5073232;28;20200;-72
2021/12/03 01:32:51;;;;;;;24.23;13.70;;;;;;;2.39;100.00;98693.47;5072672;28;20216;-72
2021/12/03 01:35:18;;;;;;;17.47;12.73;;;;;;;2.49;100.00;98684.91;5071733;28;20207;-72
2021/12/03 01:37:48;;;;;;;21.13;12.73;;;;;;;2.53;100.00;98677.28;5072601;28;20196;-73
2021/12/03 01:40:18;;;;;;;14.43;11.63;;;;;;;2.55;100.00;98695.81;5072816;28;20211;-72
2021/12/03 01:42:45;;;;;;;19.77;13.03;;;;;;;2.54;100.00;98693.31;5072588;28;20585;-73
2021/12/03 01:45:14;;;;;;;21.73;12.83;;;;;;;2.57;100.00;98688.22;5072542;28;20200;-73
2021/12/03 01:47:42;;;;;;;20.53;13.33;;;;;;;2.57;100.00;98683.16;5072675;28;20224;-73
2021/12/03 01:50:09;;;;;;;16.90;12.87;;;;;;;2.68;100.00;98683.91;5070585;28;20642;-73
2021/12/03 01:52:36;;;;;;;16.63;13.30;;;;;;;2.70;100.00;98678.81;5070330;28;20273;-72
2021/12/03 01:55:08;;;;;;;15.17;12.97;;;;;;;2.73;100.00;98684.69;5072127;28;20196;-72
2021/12/03 01:57:35;;;;;;;19.87;12.73;;;;;;;2.74;100.00;98678.78;5072762;28;20691;-73
2021/12/03 02:00:04;;;;;;;16.03;12.33;;;;;;;2.74;100.00;98670.34;5072203;28;20204;-72
2021/12/03 02:02:31;;;;;;;15.73;11.00;;;;;;;2.77;100.00;98653.44;5071598;28;20196;-72
2021/12/03 02:04:59;;;;;;;18.33;11.83;;;;;;;2.80;100.00;98666.06;5071948;28;20643;-72
2021/12/03 02:07:25;;;;;;;12.20;10.73;;;;;;;2.82;100.00;98659.28;5072134;28;20204;-73
2021/12/03 02:09:52;;;;;;;14.13;11.30;;;;;;;2.83;100.00;98648.31;5072273;28;20208;-72
2021/12/03 02:12:20;;;;;;;21.00;13.40;;;;;;;2.83;100.00;98634.81;5071929;28;20216;-73
2021/12/03 02:14:47;;;;;;;13.57;11.67;;;;;;;2.79;100.00;98641.59;5072225;28;20196;-73
2021/12/03 02:17:14;;;;;;;20.80;12.33;;;;;;;2.64;100.00;98662.03;5071784;28;20622;-71
2021/12/03 02:19:42;;;;;;;14.70;11.47;;;;;;;2.67;100.00;98664.50;5072154;28;20208;-72
2021/12/03 02:22:10;;;;;;;14.87;10.93;;;;;;;2.59;100.00;98673.84;5072076;28;20688;-73
2021/12/03 02:24:37;;;;;;;15.47;12.27;;;;;;;2.55;100.00;98673.03;5070555;28;20196;-72
2021/12/03 02:27:04;;;;;;;17.60;12.43;;;;;;;2.58;100.00;98672.19;5071734;28;20211;-71
2021/12/03 02:29:31;;;;;;;19.97;12.40;;;;;;;2.60;100.00;98662.91;5071659;28;20203;-72
2021/12/03 02:31:58;;;;;;;16.93;12.07;;;;;;;2.58;100.00;98654.50;5071523;28;20277;-72
2021/12/03 02:34:25;;;;;;;22.77;14.07;;;;;;;2.54;100.00;98657.91;5071765;28;20200;-72
2021/12/03 02:36:52;;;;;;;23.00;14.10;;;;;;;2.54;100.00;98657.91;5066433;28;20699;-72
2021/12/03 02:39:20;;;;;;;17.37;12.20;;;;;;;2.57;100.00;98655.34;5070526;28;20203;-73
2021/12/03 02:41:47;;;;;;;17.77;12.87;;;;;;;2.60;100.00;98657.84;5069506;28;20220;-72
2021/12/03 02:44:14;;;;;;;20.43;12.93;;;;;;;2.58;100.00;98647.75;5068603;28;20200;-72
2021/12/03 02:46:41;;;;;;;16.37;12.80;;;;;;;2.62;100.00;98656.13;5066728;28;20207;-72
2021/12/03 02:49:13;;;;;;;18.50;12.20;;;;;;;2.65;100.00;98645.97;5068777;28;20650;-73
2021/12/03 02:51:40;;;;;;;19.93;13.93;;;;;;;2.60;100.00;98640.13;5069362;28;20255;-72
2021/12/03 02:54:07;;;;;;;28.53;12.80;;;;;;;2.63;100.00;98632.50;5069347;28;20200;-73
2021/12/03 02:56:35;;;;;;;21.57;12.83;;;;;;;2.63;100.00;98642.63;5071035;28;20196;-72
2021/12/03 02:59:02;;;;;;;23.57;13.33;;;;;;;2.59;100.00;98643.50;5069336;28;20571;-72
2021/12/03 03:01:29;;;;;;;17.00;12.33;;;;;;;2.26;100.00;98621.09;5069054;28;20196;-74
2021/12/03 03:03:56;;;;;;;16.23;13.23;;;;;;;2.19;100.00;98649.81;5069257;28;20196;-71
2021/12/03 03:06:23;;;;;;;21.87;12.33;;;;;;;2.16;100.00;98639.72;5069456;28;20196;-74
2021/12/03 03:08:50;;;;;;;23.33;13.80;;;;;;;2.06;100.00;98644.88;5069580;28;20196;-72
2021/12/03 03:11:18;;;;;;;23.30;14.63;;;;;;;2.10;100.00;98646.50;5069576;28;20196;-74
2021/12/03 03:13:46;;;;;;;33.57;17.93;;;;;;;1.96;100.00;98635.69;5070275;28;20251;-71
2021/12/03 03:16:16;;;;;;;18.17;14.40;;;;;;;1.96;100.00;98653.38;5070942;28;20200;-71
2021/12/03 03:18:43;;;;;;;21.13;15.53;;;;;;;2.00;100.00;98644.06;5070251;28;20692;-72
2021/12/03 03:21:10;;;;;;;22.80;14.90;;;;;;;2.06;100.00;98634.75;5071019;28;20198;-71
2021/12/03 03:23:37;;;;;;;17.17;13.77;;;;;;;2.06;100.00;98654.13;5070593;28;20204;-72
2021/12/03 03:26:05;;;;;;;25.67;14.73;;;;;;;2.10;100.00;98651.56;5070740;28;20203;-72
2021/12/03 03:28:32;;;;;;;25.60;14.53;;;;;;;2.22;100.00;98647.25;5070816;28;20262;-74
2021/12/03 03:31:01;;;;;;;24.10;14.63;;;;;;;2.18;100.00;98628.75;5070673;28;20204;-72
2021/12/03 03:33:28;;;;;;;21.13;15.27;;;;;;;2.35;100.00;98634.50;5070881;28;20791;-73
2021/12/03 03:35:55;;;;;;;26.13;15.23;;;;;;;2.44;100.00;98647.03;5070802;28;20192;-72
2021/12/03 03:38:22;;;;;;;25.07;15.60;;;;;;;2.52;100.00;98631.78;5070678;28;20712;-72
2021/12/03 03:40:50;;;;;;;27.50;16.57;;;;;;;2.55;100.00;98634.28;5070707;28;20211;-71
2021/12/03 03:43:18;;;;;;;28.83;15.57;;;;;;;2.62;100.00;98623.22;5069755;28;20231;-73
2021/12/03 03:45:45;;;;;;;25.70;16.03;;;;;;;2.60;100.00;98651.09;5069563;28;20200;-71
2021/12/03 03:48:14;;;;;;;29.77;16.03;;;;;;;2.61;100.00;98650.25;5070704;28;20200;-72
2021/12/03 03:50:41;;;;;;;32.73;15.37;;;;;;;2.62;100.00;98656.13;5070371;28;20200;-71
2021/12/03 03:53:08;;;;;;;20.90;14.83;;;;;;;2.63;100.00;98638.41;5070332;28;20223;-72
2021/12/03 03:55:35;;;;;;;24.17;15.60;;;;;;;2.64;100.00;98634.19;5070476;28;20196;-72
2021/12/03 03:58:04;;;;;;;21.67;16.57;;;;;;;2.65;100.00;98645.97;5070474;28;20200;-72
2021/12/03 04:00:33;;;;;;;21.07;13.87;;;;;;;2.64;100.00;98641.78;5070633;28;20200;-74
2021/12/03 04:03:01;;;;;;;19.83;14.67;;;;;;;2.48;100.00;98650.38;5069502;28;20188;-71
2021/12/03 04:05:29;;;;;;;23.20;13.17;;;;;;;2.38;100.00;98671.56;5066374;28;20196;-72
2021/12/03 04:07:57;;;;;;;14.90;12.00;;;;;;;2.34;100.00;98655.56;5070138;28;20207;-72
2021/12/03 04:10:24;;;;;;;19.23;12.80;;;;;;;2.32;100.00;98661.50;5070774;28;20196;-72
2021/12/03 04:12:51;;;;;;;14.37;12.37;;;;;;;2.30;100.00;98645.47;5070521;28;20220;-72
2021/12/03 04:15:18;;;;;;;19.37;12.77;;;;;;;2.40;100.00;98659.72;5074375;28;20206;-72
2021/12/03 04:17:45;;;;;;;19.10;12.20;;;;;;;2.45;100.00;98663.91;5074450;28;20200;-72
2021/12/03 04:20:15;;;;;;;18.97;12.80;;;;;;;2.51;100.00;98668.06;5074089;28;20196;-73
2021/12/03 04:22:43;;;;;;;17.83;12.13;;;;;;;2.47;100.00;98651.22;5074184;28;20203;-74
2021/12/03 04:25:14;;;;;;;23.47;14.73;;;;;;;2.46;100.00;98674.81;5074162;28;20200;-72
2021/12/03 04:27:42;;;;;;;19.57;14.70;;;;;;;2.49;100.00;98654.56;5074263;28;20623;-74
2021/12/03 04:30:14;;;;;;;23.77;14.33;;;;;;;2.39;100.00;98648.75;5072826;28;20196;-72
2021/12/03 04:32:42;;;;;;;25.10;15.70;;;;;;;2.45;100.00;98651.25;5073577;28;20227;-73
2021/12/03 04:35:10;;;;;;;24.30;15.47;;;;;;;2.47;100.00;98659.66;5073946;28;20196;-72
2021/12/03 04:37:37;;;;;;;25.97;17.50;;;;;;;2.58;100.00;98649.44;5073988;28;20200;-72
2021/12/03 04:40:08;;;;;;;19.90;15.67;;;;;;;2.64;100.00;98634.19;5072656;28;20212;-73
2021/12/03 04:42:35;;;;;;;23.93;15.20;;;;;;;2.64;100.00;98647.69;5072040;28;20227;-72
2021/12/03 04:45:02;;;;;;;22.40;14.33;;;;;;;2.56;100.00;98646.91;5070973;28;20203;-71
2021/12/03 04:47:29;;;;;;;20.73;14.03;;;;;;;2.57;100.00;98657.88;5073750;28;20207;-72
2021/12/03 04:49:56;;;;;;;25.13;16.17;;;;;;;2.55;100.00;98667.97;5073795;28;20196;-71
2021/12/03 04:52:23;;;;;;;20.37;14.60;;;;;;;2.58;100.00;98677.25;5073387;28;20318;-72
2021/12/03 04:54:50;;;;;;;20.27;13.97;;;;;;;2.60;100.00;98678.06;5073675;28;20196;-72
2021/12/03 04:57:18;;;;;;;24.37;15.23;;;;;;;2.61;100.00;98684.81;5073191;28;20571;-73
2021/12/03 04:59:45;;;;;;;24.07;14.80;;;;;;;2.40;100.00;98639.47;5071739;28;20196;-72
2021/12/03 05:02:12;;;;;;;21.50;14.80;;;;;;;2.63;100.00;98666.22;5071607;28;20192;-71
2021/12/03 05:04:39;;;;;;;22.90;14.93;;;;;;;2.65;100.00;98676.31;5071994;28;20630;-72
2021/12/03 05:07:27;;;;;;;25.50;14.90;;;;;;;2.66;100.00;98683.06;5072067;28;20206;-73
2021/12/03 05:09:54;;;;;;;17.40;13.90;;;;;;;2.64;100.00;98689.84;5072626;28;20243;-72
2021/12/03 05:12:22;;;;;;;17.70;13.37;;;;;;;2.55;100.00;98674.75;5072255;28;20609;-73
2021/12/03 05:14:50;;;;;;;20.93;13.63;;;;;;;2.28;100.00;98675.00;5072950;28;20195;-72
2021/12/03 05:17:16;;;;;;;17.77;12.43;;;;;;;2.28;100.00;98693.56;5073081;28;20207;-73
2021/12/03 05:19:43;;;;;;;20.50;13.03;;;;;;;2.17;100.00;98692.78;5073294;28;20208;-72
2021/12/03 05:22:12;;;;;;;18.60;13.07;;;;;;;2.04;100.00;98698.78;5073154;28;20204;-72
2021/12/03 05:24:39;;;;;;;15.40;11.93;;;;;;;2.04;100.00;98687.00;5072430;28;20204;-74
2021/12/03 05:27:06;;;;;;;20.90;13.40;;;;;;;2.05;100.00;98719.00;5073158;28;20291;-72
2021/12/03 05:29:34;;;;;;;18.17;11.90;;;;;;;2.08;100.00;98670.13;5073090;28;20192;-74
2021/12/03 05:32:01;;;;;;;19.70;13.07;;;;;;;2.05;100.00;98698.78;5073138;28;20192;-73
2021/12/03 05:34:29;;;;;;;13.97;12.40;;;;;;;2.01;100.00;98708.91;5071964;28;20208;-72
2021/12/03 05:36:56;;;;;;;14.27;11.93;;;;;;;1.99;100.00;98683.66;5071209;28;20207;-74
2021/12/03 05:39:22;;;;;;;160.60;63.50;;;;;;;1.96;100.00;98701.38;5071354;28;20592;-72
2021/12/03 05:41:49;;;;;;;59.60;29.60;;;;;;;2.02;100.00;98703.88;5068763;28;20290;-73
2021/12/03 05:44:16;;;;;;;85.33;36.77;;;;;;;2.02;100.00;98698.81;5066461;28;20200;-73
2021/12/03 05:46:44;;;;;;;56.70;27.90;;;;;;;2.09;100.00;98708.03;5060864;28;20732;-74
2021/12/03 05:49:11;;;;;;;31.63;16.90;;;;;;;2.09;100.00;98705.50;5064570;28;20204;-73
2021/12/03 05:51:38;;;;;;;26.37;14.97;;;;;;;2.18;100.00;98683.53;5064756;28;20208;-74
2021/12/03 05:54:05;;;;;;;127.27;51.90;;;;;;;2.20;100.00;98700.34;5062676;28;20219;-73
2021/12/03 05:56:32;;;;;;;24.80;15.60;;;;;;;2.20;100.00;98722.28;5070147;28;20199;-73
2021/12/03 05:58:59;;;;;;;60.23;26.13;;;;;;;2.05;100.00;98668.47;5070531;28;20219;-74
2021/12/03 06:01:26;;;;;;;45.13;23.63;;;;;;;2.11;100.00;98708.84;5071498;28;20202;-73
2021/12/03 06:03:55;;;;;;;24.37;14.13;;;;;;;2.18;100.00;98683.53;5071921;28;20192;-74
2021/12/03 06:06:22;;;;;;;144.07;51.47;;;;;;;2.06;100.00;98700.47;5072264;28;20202;-73
2021/12/03 06:08:49;;;;;;;29.00;17.93;;;;;;;2.19;100.00;98725.66;5071808;28;20200;-73
2021/12/03 06:11:17;;;;;;;19.33;13.43;;;;;;;2.27;100.00;98721.38;5072331;28;20198;-74
2021/12/03 06:13:44;;;;;;;20.57;13.60;;;;;;;2.30;100.00;98744.09;5071628;28;20215;-72
2021/12/03 06:16:13;;;;;;;18.87;12.93;;;;;;;2.31;100.00;98736.50;5071819;28;20645;-73
2021/12/03 06:18:40;;;;;;;19.87;14.40;;;;;;;2.31;100.00;98736.50;5067957;28;20605;-73
2021/12/03 06:21:10;;;;;;;19.17;13.87;;;;;;;2.30;100.00;98744.09;5071509;28;20200;-73
2021/12/03 06:23:37;;;;;;;24.33;13.43;;;;;;;2.32;100.00;98707.00;5071888;28;20287;-73
2021/12/03 06:26:05;;;;;;;15.87;12.37;;;;;;;2.28;100.00;98750.88;5071404;28;20204;-73
2021/12/03 06:28:32;;;;;;;25.60;13.07;;;;;;;2.30;100.00;98728.91;5071803;28;20206;-74
2021/12/03 06:30:59;;;;;;;28.40;13.83;;;;;;;2.29;100.00;98732.31;5071651;28;20222;-74
2021/12/03 06:33:26;;;;;;;22.67;14.00;;;;;;;2.28;100.00;98740.75;5071612;28;20215;-74
2021/12/03 06:35:53;;;;;;;25.47;14.63;;;;;;;2.36;100.00;98739.00;5069806;28;20197;-74
2021/12/03 06:38:23;;;;;;;21.20;14.70;;;;;;;2.45;100.00;98738.94;5070557;28;20293;-74
2021/12/03 06:40:50;;;;;;;19.33;14.90;;;;;;;2.49;100.00;98760.78;5071171;28;20249;-73
2021/12/03 06:43:18;;;;;;;20.07;13.57;;;;;;;2.50;100.00;98737.19;5071000;28;20216;-74
2021/12/03 06:45:45;;;;;;;24.07;14.47;;;;;;;2.53;100.00;98737.16;5071324;28;20203;-73
2021/12/03 06:48:13;;;;;;;27.67;14.90;;;;;;;2.53;100.00;98727.03;5071003;28;20692;-74
2021/12/03 06:50:40;;;;;;;23.70;13.77;;;;;;;2.54;100.00;98748.97;5071048;28;20210;-74
2021/12/03 06:53:09;;;;;;;27.17;14.80;;;;;;;2.58;100.00;98745.56;5070958;28;20702;-73
2021/12/03 06:55:45;;;;;;;30.97;17.03;;;;;;;2.60;100.00;98753.97;5071232;28;20683;-74
2021/12/03 06:58:12;;;;;;;28.37;14.17;;;;;;;2.69;100.00;98763.16;5070834;28;20835;-74
2021/12/03 07:00:39;;;;;;;76.40;28.80;;;;;;;2.73;100.00;98753.00;5070343;28;20196;-75
2021/12/03 07:03:05;;;;;;;30.77;13.33;;;;;;;2.78;100.00;98773.22;5068513;28;20200;-73
2021/12/03 07:05:32;;;;;;;18.87;12.20;;;;;;;2.82;100.00;98783.28;5069530;28;20199;-74
2021/12/03 07:07:59;;;;;;;19.63;11.67;;;;;;;2.86;100.00;98767.22;5071033;28;20200;-74
2021/12/03 07:10:26;;;;;;;20.47;12.67;;;;;;;2.91;100.00;98765.47;5068066;28;20679;-72
2021/12/03 07:12:55;;;;;;;21.87;12.20;;;;;;;3.05;100.00;98773.78;5065085;28;20211;-73
2021/12/03 07:15:22;;;;;;;19.70;12.47;;;;;;;3.12;100.00;98769.50;5064790;28;20208;-74
2021/12/03 07:17:51;;;;;;;24.03;13.70;;;;;;;3.23;100.00;98775.31;5068095;28;20210;-73
2021/12/03 07:20:19;;;;;;;14.90;10.77;;;;;;;3.30;100.00;98774.34;5065167;28;20204;-67
2021/12/03 07:22:46;;;;;;;16.60;12.00;;;;;;;3.38;100.00;98772.59;5067695;28;20200;-67
2021/12/03 07:25:13;;;;;;;15.53;11.23;;;;;;;3.47;100.00;98771.63;5061001;28;20201;-67
2021/12/03 07:27:40;;;;;;;19.27;13.23;;;;;;;3.57;100.00;98788.41;5067399;28;20672;-67
2021/12/03 07:30:11;;;;;;;22.63;13.07;;;;;;;3.68;100.00;98786.59;5068568;28;20200;-68
2021/12/03 07:32:38;;;;;;;19.63;14.40;;;;;;;3.80;100.00;98804.16;5066709;28;20212;-67
2021/12/03 07:35:07;;;;;;;17.40;12.30;;;;;;;3.87;100.00;98798.19;5064259;28;20227;-68
2021/12/03 07:37:34;;;;;;;20.63;12.60;;;;;;;3.95;100.00;98811.56;5065252;28;20587;-67
2021/12/03 07:40:02;;;;;;;18.00;12.47;;;;;;;4.12;100.00;98796.97;5068095;28;20212;-67
2021/12/03 07:42:30;;;;;;;29.27;15.87;;;;;;;4.24;100.00;98789.19;5067427;28;20244;-73
2021/12/03 07:44:57;;;;;;;16.03;12.40;;;;;;;4.36;100.00;98797.50;5067617;28;20268;-74
2021/12/03 07:47:25;;;;;;;19.03;12.63;;;;;;;4.44;100.00;98791.44;5067450;28;20222;-74
2021/12/03 07:49:53;;;;;;;13.93;10.30;;;;;;;4.43;100.00;98786.34;5067616;28;20686;-74
2021/12/03 07:52:21;;;;;;;13.10;11.63;;;;;;;4.48;100.00;98797.28;5063492;28;20452;-75
2021/12/03 07:54:48;;;;;;;21.77;14.18;;;;;;;4.63;100.00;98805.50;5065834;28;20574;-70
2021/12/03 07:57:15;;;;;;;14.20;11.13;;;;;;;4.81;100.00;98806.91;5067431;28;20200;-71
2021/12/03 07:59:44;;;;;;;13.17;11.37;;;;;;;4.62;100.00;98764.94;5068295;28;20199;-71
2021/12/03 08:02:11;;;;;;;11.40;10.23;;;;;;;4.82;100.00;98795.88;5069799;28;20207;-71
2021/12/03 08:04:40;;;;;;;11.23;9.33;;;;;;;4.86;100.00;98802.59;5069733;28;20211;-70
2021/12/03 08:07:08;;;;;;;10.37;9.37;;;;;;;4.95;100.00;98792.28;5069648;28;20210;-71
2021/12/03 08:09:35;;;;;;;13.60;9.00;;;;;;;5.14;100.00;98788.53;5069672;28;20208;-71
2021/12/03 08:12:02;;;;;;;11.17;10.13;;;;;;;5.11;100.00;98783.50;5069016;28;20206;-70
2021/12/03 08:14:29;;;;;;;10.07;9.00;;;;;;;5.39;100.00;98810.97;5069894;28;20223;-70
2021/12/03 08:16:55;;;;;;;10.80;9.37;;;;;;;5.56;100.00;98798.75;5056101;28;20616;-71
2021/12/03 08:19:22;;;;;;;9.80;8.80;;;;;;;5.66;100.00;98815.50;5067254;28;20207;-70
2021/12/03 08:21:50;;;;;;;10.03;8.90;;;;;;;5.80;100.00;98816.06;5064442;28;20205;-70
2021/12/03 08:24:17;;;;;;;8.87;8.13;;;;;;;5.89;100.00;98813.38;5066590;28;20196;-70
2021/12/03 08:26:44;;;;;;;14.00;11.03;;;;;;;6.06;100.00;98800.28;5067316;28;20208;-71
2021/12/03 08:29:11;;;;;;;17.97;11.33;;;;;;;6.09;100.00;98806.16;5067027;28;20207;-70
2021/12/03 08:31:39;;;;;;;10.10;9.27;;;;;;;6.25;100.00;98789.69;5063938;28;20204;-70
2021/12/03 08:34:06;;;;;;;27.63;14.57;;;;;;;6.33;100.00;98797.97;5064247;28;20784;-71
2021/12/03 08:36:33;;;;;;;12.40;9.50;;;;;;;6.46;100.00;98795.16;5066578;28;20208;-71
2021/12/03 08:39:01;;;;;;;10.07;8.73;;;;;;;6.49;100.00;98779.81;5066726;28;20211;-71
2021/12/03 08:41:28;;;;;;;10.37;9.40;;;;;;;6.64;100.00;98764.16;5065662;28;20228;-70
2021/12/03 08:43:55;;;;;;;10.77;9.77;;;;;;;6.66;100.00;98747.94;5067220;28;20209;-70
2021/12/03 08:46:26;;;;;;;11.60;10.17;;;;;;;6.76;100.00;98764.69;5065897;28;20208;-70
2021/12/03 08:48:53;;;;;;;24.30;13.50;;;;;;;6.83;100.00;98750.09;5067865;28;20680;-71
2021/12/03 08:51:34;;;;;;;16.67;12.83;;;;;;;6.90;100.00;98758.41;5065366;28;20208;-70
2021/12/03 08:56:47;;;;;;;12.37;11.03;;;;;;;7.10;100.00;98748.53;5060818;28;20207;-71
2021/12/03 08:59:15;;;;;;;22.53;13.73;;;;;;;7.16;100.00;98754.31;5066602;28;20277;-70
2021/12/03 09:01:42;;;;;;;18.90;14.37;;;;;;;7.24;100.00;98760.03;5069336;28;20208;-70
2021/12/03 09:04:09;;;;;;;18.60;13.80;;;;;;;7.37;100.00;98760.53;5066930;28;20200;-71
2021/12/03 09:06:37;;;;;;;15.33;13.67;;;;;;;7.39;100.00;98749.44;5063557;28;20208;-70
2021/12/03 09:09:06;;;;;;;21.47;13.83;;;;;;;7.45;100.00;98742.47;5065762;28;20207;-70
2021/12/03 09:11:33;;;;;;;19.33;13.90;;;;;;;7.42;100.00;98745.09;5068044;28;20210;-70
2021/12/03 09:14:03;;;;;;;16.93;12.50;;;;;;;7.57;100.00;98744.66;5066687;28;20215;-70
2021/12/03 09:16:30;;;;;;;21.43;12.63;;;;;;;7.47;100.00;98728.78;5068299;28;20208;-70
2021/12/03 09:18:58;;;;;;;18.03;12.87;;;;;;;7.46;100.00;98716.09;5066859;28;20212;-70
2021/12/03 09:21:27;;;;;;;32.77;18.67;;;;;;;7.58;100.00;98731.03;5068782;28;20203;-70
2021/12/03 09:24:12;;;;;;;24.90;15.47;;;;;;;7.67;100.00;98721.41;5067091;28;20232;-70
2021/12/03 09:26:41;;;;;;;18.93;15.00;;;;;;;7.64;100.00;98701.09;5065406;28;20207;-70
2021/12/03 09:29:11;;;;;;;29.73;16.33;;;;;;;7.67;100.00;98710.38;5063196;28;20290;-70
2021/12/03 09:31:41;;;;;;;40.45;21.67;;;;;;;7.72;100.00;98708.53;5066212;28;20445;-71
2021/12/03 09:34:10;;;;;;;32.20;18.30;;;;;;;7.90;100.00;98702.88;5066675;28;20219;-70
2021/12/03 09:36:40;;;;;;;24.80;15.73;;;;;;;7.95;100.00;98711.19;5067125;28;20261;-71
2021/12/03 09:39:07;;;;;;;25.23;16.67;;;;;;;8.05;100.00;98704.94;5069420;28;20196;-71
2021/12/03 09:41:34;;;;;;;22.00;15.07;;;;;;;8.13;100.00;98731.06;5070402;28;20281;-71
2021/12/03 09:44:03;;;;;;;19.83;14.53;;;;;;;8.19;100.00;98743.66;5072497;28;20192;-70
2021/12/03 09:46:30;;;;;;;15.93;12.93;;;;;;;8.28;100.00;98735.72;5072636;28;20672;-71
2021/12/03 09:51:51;;;;;;;24.47;14.80;;;;;;;8.45;100.00;98727.53;5068729;28;20208;-70
2021/12/03 09:54:26;;;;;;;13.60;12.27;;;;;;;8.40;100.00;98703.88;5066963;28;20245;-71
2021/12/03 09:57:01;;;;;;;19.10;13.07;;;;;;;8.55;100.00;98733.19;5064450;28;20214;-70
2021/12/03 10:02:27;;;;;;;17.83;12.47;;;;;;;8.74;100.00;98719.75;5068936;28;20196;-71
2021/12/03 10:05:29;;;;;;;17.60;12.70;;;;;;;8.84;100.00;98727.94;5071458;28;20203;-71
2021/12/03 10:13:35;;;;;;;13.90;11.70;;;;;;;9.05;100.00;98704.19;5070940;28;20238;-71
2021/12/03 10:18:54;;;;;;;14.23;11.50;;;;;;;9.16;100.00;98691.88;5068840;28;20204;-72
2021/12/03 10:22:02;;;;;;;21.23;11.70;;;;;;;9.26;100.00;98682.97;5071131;28;20262;-72
2021/12/03 10:25:08;;;;;;;16.50;12.33;;;;;;;9.28;100.00;98686.31;5071481;28;20287;-70
2021/12/03 10:38:58;;;;;;;26.60;14.80;;;;;;;9.60;99.79;98646.72;5005903;28;20206;-71
2021/12/03 10:41:32;;;;;;;33.90;19.53;;;;;;;9.67;100.00;98652.44;5006891;28;20225;-71
2021/12/03 10:44:07;;;;;;;35.73;20.33;;;;;;;9.74;100.00;98669.22;5042158;28;20693;-71
2021/12/03 10:46:57;;;;;;;43.07;24.63;;;;;;;9.81;100.00;98675.78;5071496;28;20199;-71
2021/12/03 10:49:43;;;;;;;41.27;21.20;;;;;;;9.86;99.38;98673.88;5071025;28;20202;-70
2021/12/03 10:52:22;;;;;;;27.87;16.67;;;;;;;9.83;99.31;98668.88;5071294;28;20258;-71
2021/12/03 11:34:13;;;;;;;13.60;12.03;;;;;;;9.89;100.00;98648.16;5045598;28;20188;-71
2021/12/03 14:37:18;;;;;;;31.90;21.07;;;;;;;9.36;100.00;98579.44;5071151;28;20207;-71
2021/12/03 14:42:48;;;;;;;21.57;16.40;;;;;;;9.34;100.00;98578.66;5064667;28;20303;-71
2021/12/03 14:45:33;;;;;;;51.33;24.63;;;;;;;9.23;100.00;98585.06;5058610;28;20251;-71
2021/12/03 14:51:03;;;;;;;47.07;29.73;;;;;;;9.10;100.00;98584.72;5060943;28;20237;-73
2021/12/03 14:53:54;;;;;;;29.17;18.70;;;;;;;8.98;100.00;98592.84;5056677;28;20212;-71
2021/12/03 14:56:24;;;;;;;19.73;15.57;;;;;;;9.08;100.00;98581.34;5054831;28;20717;-72
2021/12/03 14:59:06;;;;;;;20.27;15.13;;;;;;;8.96;100.00;98581.81;5060453;28;20200;-71
2021/12/03 15:01:41;;;;;;;31.83;17.60;;;;;;;8.94;100.00;98565.72;5065234;28;20703;-72
2021/12/03 15:04:32;;;;;;;49.03;27.80;;;;;;;8.96;100.00;98576.69;5061865;28;20211;-71
2021/12/03 15:07:09;;;;;;;51.07;24.60;;;;;;;8.78;100.00;98592.72;5065430;28;20288;-71
2021/12/03 15:09:38;;;;;;;42.93;22.70;;;;;;;8.76;100.00;98589.34;5058884;28;20700;-71
2021/12/03 15:21:01;;;;;;;65.97;34.73;;;;;;;8.94;100.00;98599.78;5037486;28;20269;-72
2021/12/03 15:26:20;;;;;;;54.83;31.17;;;;;;;8.93;100.00;98602.38;5022789;28;20310;-72
2021/12/03 15:31:45;;;;;;;158.03;77.70;;;;;;;8.92;100.00;98605.81;5067491;28;20718;-71
2021/12/03 15:34:23;;;;;;;191.10;82.33;;;;;;;8.96;100.00;98599.69;5066861;28;20511;-72
2021/12/03 15:37:08;;;;;;;198.90;91.07;;;;;;;8.95;100.00;98595.47;5065089;28;20292;-70
2021/12/03 15:39:54;;;;;;;201.37;89.90;;;;;;;8.95;100.00;98603.97;5066853;28;20200;-71
2021/12/03 16:04:14;;;;;;;174.83;74.43;;;;;;;8.77;100.00;98657.47;5065204;28;20752;-71
2021/12/03 16:06:54;;;;;;;172.70;78.43;;;;;;;8.76;100.00;98643.03;5066872;28;20230;-72
2021/12/03 16:09:40;;;;;;;164.57;70.47;;;;;;;8.78;100.00;98661.69;5066122;28;20210;-72
2021/12/03 16:12:14;;;;;;;184.90;87.43;;;;;;;8.73;100.00;98655.91;5065803;28;20290;-71
2021/12/03 16:14:57;;;;;;;226.17;95.97;;;;;;;8.60;100.00;98649.53;5063894;28;20292;-72
2021/12/03 16:17:42;;;;;;;229.83;104.20;;;;;;;8.55;100.00;98646.31;5055573;28;20205;-72